Time;durP1;ratioP1;P1;durP2;ratioP2;P2;SDS_P1;SDS_P2;PMS_P1;PMS_P2;Temp;Humidity;BMP_temperature;BMP_pressure;BME280_temperature;BME280_humidity;BME280_pressure;Samples;Min_cycle;Max_cycle;Signal;HPM_P1;HPM_P2
2021/06/06 00:02:24;;;;;;;55.85;31.75;;;16.20;99.90;;;;;;5022490;28;20079;-60
2021/06/06 00:04:50;;;;;;;63.20;35.65;;;16.20;99.90;;;;;;5012247;28;20038;-57
2021/06/06 00:07:16;;;;;;;55.38;33.72;;;16.20;99.90;;;;;;5015921;28;20028;-56
2021/06/06 00:09:41;;;;;;;52.00;32.33;;;16.10;99.90;;;;;;5017045;28;20033;-58
2021/06/06 00:12:08;;;;;;;55.78;31.23;;;16.10;99.90;;;;;;5016143;28;20475;-53
2021/06/06 00:14:36;;;;;;;49.03;28.95;;;16.10;99.90;;;;;;5020611;28;20030;-57
2021/06/06 00:17:05;;;;;;;50.63;29.55;;;16.10;99.90;;;;;;5021493;28;20033;-56
2021/06/06 00:19:31;;;;;;;52.10;28.90;;;16.10;99.90;;;;;;5018267;28;20064;-54
2021/06/06 00:21:58;;;;;;;48.00;27.98;;;16.10;99.90;;;;;;5021481;28;20060;-58
2021/06/06 00:24:27;;;;;;;43.10;27.35;;;16.00;99.90;;;;;;5026371;28;20031;-54
2021/06/06 00:26:53;;;;;;;59.40;30.27;;;16.00;99.90;;;;;;5023093;28;20037;-56
2021/06/06 00:29:20;;;;;;;45.58;28.30;;;16.00;99.90;;;;;;5022345;28;20042;-55
2021/06/06 00:31:46;;;;;;;53.58;28.50;;;15.90;99.90;;;;;;5023653;28;20033;-56
2021/06/06 00:34:11;;;;;;;48.85;26.58;;;15.90;99.90;;;;;;5025836;28;20034;-56
2021/06/06 00:36:38;;;;;;;49.08;27.70;;;15.90;99.90;;;;;;5015904;28;20112;-56
2021/06/06 00:39:05;;;;;;;41.88;26.00;;;15.90;99.90;;;;;;5024989;28;20042;-54
2021/06/06 00:41:31;;;;;;;47.53;28.17;;;15.90;99.90;;;;;;5021839;28;20108;-59
2021/06/06 00:43:57;;;;;;;48.13;28.98;;;15.90;99.90;;;;;;5017553;28;20061;-55
2021/06/06 00:46:26;;;;;;;45.47;26.73;;;15.90;99.90;;;;;;5008638;28;20033;-54
2021/06/06 00:48:52;;;;;;;43.88;27.35;;;15.90;99.90;;;;;;5017643;28;20082;-53
2021/06/06 00:51:42;;;;;;;51.55;27.83;;;15.90;99.90;;;;;;5015156;28;20433;-58
2021/06/06 00:54:24;;;;;;;47.38;27.75;;;15.90;99.90;;;;;;5011742;28;20312;-54
2021/06/06 00:57:03;;;;;;;48.78;27.25;;;15.90;99.90;;;;;;5021170;28;20029;-53
2021/06/06 00:59:31;;;;;;;45.03;27.58;;;15.90;99.90;;;;;;5025135;28;20029;-53
2021/06/06 01:01:57;;;;;;;45.85;28.02;;;15.80;99.90;;;;;;5024892;28;20040;-53
2021/06/06 01:04:23;;;;;;;47.00;29.05;;;15.80;99.90;;;;;;5023821;28;20030;-56
2021/06/06 01:06:51;;;;;;;51.50;30.70;;;15.80;99.90;;;;;;5020916;28;20033;-55
2021/06/06 01:09:19;;;;;;;51.97;30.10;;;15.70;99.90;;;;;;5018895;28;20021;-53
2021/06/06 01:12:00;;;;;;;52.30;30.70;;;15.70;99.90;;;;;;5021721;28;20041;-52
2021/06/06 01:14:36;;;;;;;52.75;30.40;;;15.70;99.90;;;;;;5023244;28;20030;-54
2021/06/06 01:17:10;;;;;;;58.45;31.73;;;15.70;99.90;;;;;;5014361;28;20038;-53
2021/06/06 01:19:42;;;;;;;49.17;28.38;;;15.70;99.90;;;;;;5023465;28;20036;-53
2021/06/06 01:22:19;;;;;;;48.60;29.20;;;15.60;99.90;;;;;;5023759;28;20053;-55
2021/06/06 01:24:58;;;;;;;55.92;28.13;;;15.60;99.90;;;;;;5025930;28;20475;-51
2021/06/06 01:27:28;;;;;;;45.72;25.02;;;15.60;99.90;;;;;;5023041;28;20034;-56
2021/06/06 01:30:15;;;;;;;42.28;24.27;;;15.60;99.90;;;;;;5020916;28;20025;-55
2021/06/06 01:32:58;;;;;;;40.30;24.48;;;15.60;99.90;;;;;;5027793;28;20671;-53
2021/06/06 01:35:27;;;;;;;41.97;25.05;;;15.50;99.90;;;;;;5016932;28;20546;-53
2021/06/06 01:38:06;;;;;;;40.80;24.08;;;15.50;99.90;;;;;;5027921;28;20034;-54
2021/06/06 01:40:35;;;;;;;46.78;25.23;;;15.50;99.90;;;;;;5016650;28;20045;-55
2021/06/06 01:43:09;;;;;;;41.70;23.35;;;15.50;99.90;;;;;;5020379;28;20030;-55
2021/06/06 01:45:39;;;;;;;39.70;23.83;;;15.50;99.90;;;;;;5017206;28;20029;-57
2021/06/06 01:48:11;;;;;;;41.28;24.33;;;15.50;99.90;;;;;;5025472;28;20125;-52
2021/06/06 01:50:54;;;;;;;43.65;24.55;;;15.50;99.90;;;;;;5022880;28;20446;-57
2021/06/06 01:53:22;;;;;;;42.25;25.50;;;15.50;99.90;;;;;;5016920;28;20026;-57
2021/06/06 01:55:53;;;;;;;43.60;24.90;;;15.50;99.90;;;;;;5015342;28;20036;-55
2021/06/06 01:58:21;;;;;;;44.53;25.02;;;15.50;99.90;;;;;;5024565;28;20745;-59
2021/06/06 02:01:13;;;;;;;38.67;23.30;;;15.50;99.90;;;;;;5027655;28;20025;-56
2021/06/06 02:03:39;;;;;;;41.60;24.05;;;15.40;99.90;;;;;;5025209;28;20068;-53
2021/06/06 02:06:09;;;;;;;37.40;23.00;;;15.40;99.90;;;;;;5019468;28;20120;-60
2021/06/06 02:08:37;;;;;;;41.05;21.50;;;15.40;99.90;;;;;;5011148;28;20036;-59
2021/06/06 02:11:34;;;;;;;43.38;23.30;;;15.40;99.90;;;;;;5023308;28;20372;-53
2021/06/06 02:14:18;;;;;;;36.30;22.38;;;15.40;99.90;;;;;;5025826;28;20036;-56
2021/06/06 02:16:50;;;;;;;37.38;23.10;;;15.40;99.90;;;;;;5027773;28;20033;-57
2021/06/06 02:19:17;;;;;;;37.45;22.27;;;15.40;99.90;;;;;;5027898;28;20032;-56
2021/06/06 02:21:43;;;;;;;49.58;25.20;;;15.40;99.90;;;;;;5023651;28;20029;-55
2021/06/06 02:24:09;;;;;;;47.50;25.05;;;15.40;99.90;;;;;;5021702;28;20106;-54
2021/06/06 02:26:42;;;;;;;46.70;25.63;;;15.40;99.90;;;;;;5022716;28;20036;-55
2021/06/06 02:29:35;;;;;;;49.80;25.38;;;15.40;99.90;;;;;;5014906;28;20034;-54
2021/06/06 02:32:09;;;;;;;42.97;24.35;;;15.40;99.90;;;;;;5022952;28;20125;-60
2021/06/06 02:34:41;;;;;;;47.80;25.33;;;15.30;99.90;;;;;;5024452;28;20066;-60
2021/06/06 02:37:12;;;;;;;46.10;25.95;;;15.30;99.90;;;;;;5022150;28;20022;-58
2021/06/06 02:39:43;;;;;;;50.95;26.83;;;15.40;99.90;;;;;;5009245;28;20022;-55
2021/06/06 02:42:17;;;;;;;47.33;26.30;;;15.30;99.90;;;;;;5019679;28;20478;-55
2021/06/06 02:45:11;;;;;;;49.97;25.95;;;15.40;99.90;;;;;;5021717;28;20134;-54
2021/06/06 02:47:38;;;;;;;47.55;26.55;;;15.30;99.90;;;;;;5022528;28;20030;-55
2021/06/06 02:50:17;;;;;;;49.15;28.05;;;15.30;99.90;;;;;;5018798;28;20029;-55
2021/06/06 02:52:48;;;;;;;44.42;25.83;;;15.30;99.90;;;;;;5022712;28;20042;-56
2021/06/06 02:55:19;;;;;;;51.65;28.50;;;15.20;99.90;;;;;;5008595;28;20018;-55
2021/06/06 02:57:51;;;;;;;47.28;25.55;;;15.20;99.90;;;;;;5013138;28;20046;-56
2021/06/06 03:00:34;;;;;;;43.25;23.45;;;15.10;99.90;;;;;;5022676;28;20147;-54
2021/06/06 03:03:07;;;;;;;50.80;28.00;;;15.20;99.90;;;;;;5024757;28;20052;-55
2021/06/06 03:05:34;;;;;;;48.20;26.25;;;15.20;99.90;;;;;;5020595;28;20078;-53
2021/06/06 03:08:03;;;;;;;48.97;26.23;;;15.10;99.90;;;;;;5024037;28;20044;-56
2021/06/06 03:10:31;;;;;;;41.45;24.80;;;15.10;99.90;;;;;;5020393;28;20586;-50
2021/06/06 03:13:03;;;;;;;42.70;24.83;;;15.20;99.90;;;;;;5023068;28;21839;-57
2021/06/06 03:15:35;;;;;;;47.30;26.73;;;15.10;99.90;;;;;;5019762;28;20604;-53
2021/06/06 03:18:02;;;;;;;49.45;26.65;;;15.10;99.90;;;;;;5017286;28;20168;-57
2021/06/06 03:20:41;;;;;;;48.20;27.02;;;15.10;99.90;;;;;;5016335;28;20033;-55
2021/06/06 03:23:09;;;;;;;44.10;25.92;;;15.10;99.90;;;;;;5013024;28;20072;-54
2021/06/06 03:25:54;;;;;;;43.40;26.10;;;15.10;99.90;;;;;;5013214;28;20487;-54
2021/06/06 03:28:23;;;;;;;42.85;24.45;;;15.10;99.90;;;;;;5025334;28;20041;-51
2021/06/06 03:30:54;;;;;;;45.65;26.45;;;15.20;99.90;;;;;;5017693;28;20398;-57
2021/06/06 03:33:28;;;;;;;45.42;26.15;;;15.10;99.90;;;;;;5034352;28;20040;-54
2021/06/06 03:35:54;;;;;;;49.15;27.63;;;15.10;99.90;;;;;;5023557;28;20045;-54
2021/06/06 03:38:20;;;;;;;43.90;24.58;;;15.20;99.90;;;;;;5019811;28;20033;-56
2021/06/06 03:40:47;;;;;;;50.20;28.40;;;15.10;99.90;;;;;;5022114;28;20104;-57
2021/06/06 03:43:15;;;;;;;48.67;27.75;;;15.10;99.90;;;;;;5024409;28;20482;-56
2021/06/06 03:45:41;;;;;;;41.78;25.65;;;15.10;99.90;;;;;;5014381;28;20034;-54
2021/06/06 03:48:07;;;;;;;45.10;25.52;;;15.10;99.90;;;;;;5024389;28;20082;-57
2021/06/06 03:50:34;;;;;;;45.70;25.75;;;15.10;99.90;;;;;;5018256;28;20041;-57
2021/06/06 03:53:00;;;;;;;50.00;25.67;;;15.10;99.90;;;;;;5018115;28;20041;-56
2021/06/06 03:55:26;;;;;;;41.70;25.08;;;15.10;99.90;;;;;;5023431;28;20038;-58
2021/06/06 03:57:52;;;;;;;41.25;23.73;;;15.10;99.90;;;;;;5018483;28;20037;-57
2021/06/06 04:00:41;;;;;;;40.92;24.40;;;15.10;99.90;;;;;;5017124;28;20540;-56
2021/06/06 04:03:06;;;;;;;42.90;22.77;;;15.10;99.90;;;;;;5023465;28;20041;-57
2021/06/06 04:05:32;;;;;;;44.00;23.45;;;15.10;99.90;;;;;;5019109;28;20442;-58
2021/06/06 04:07:58;;;;;;;43.28;24.25;;;15.10;99.90;;;;;;5016534;28;20522;-60
2021/06/06 04:10:25;;;;;;;38.33;23.70;;;15.00;99.90;;;;;;5019888;28;20555;-60
2021/06/06 04:12:51;;;;;;;37.22;22.50;;;15.00;99.90;;;;;;5018805;28;20030;-58
2021/06/06 04:15:17;;;;;;;36.28;21.40;;;15.10;99.90;;;;;;5055763;22;20474;-61
2021/06/06 04:17:43;;;;;;;40.90;23.30;;;15.10;99.90;;;;;;5047439;28;20032;-62
2021/06/06 04:20:09;;;;;;;37.45;21.55;;;15.10;99.90;;;;;;5049359;28;20056;-60
2021/06/06 04:22:36;;;;;;;30.58;19.67;;;15.10;99.90;;;;;;5048408;28;20017;-60
2021/06/06 04:25:03;;;;;;;36.60;21.08;;;15.10;99.90;;;;;;5033997;28;20407;-61
2021/06/06 04:27:29;;;;;;;32.20;19.75;;;15.10;99.90;;;;;;5025887;28;20037;-63
2021/06/06 04:29:54;;;;;;;36.17;20.73;;;15.10;99.90;;;;;;5029415;28;20087;-62
2021/06/06 04:32:20;;;;;;;41.35;21.10;;;15.10;99.90;;;;;;5029437;28;20086;-61
2021/06/06 04:34:48;;;;;;;34.53;19.92;;;15.10;99.90;;;;;;5029018;28;20116;-62
2021/06/06 04:37:14;;;;;;;37.17;19.00;;;15.10;99.90;;;;;;5028606;28;20423;-60
2021/06/06 04:39:40;;;;;;;35.38;19.63;;;15.10;99.90;;;;;;5029213;28;20018;-62
2021/06/06 04:42:09;;;;;;;38.70;20.25;;;15.10;99.90;;;;;;5027814;28;20029;-61
2021/06/06 04:44:36;;;;;;;35.60;21.35;;;15.10;99.90;;;;;;5028662;28;20055;-63
2021/06/06 04:47:04;;;;;;;35.10;20.88;;;15.10;99.90;;;;;;5028169;28;20578;-63
2021/06/06 04:49:30;;;;;;;34.10;20.25;;;15.10;99.90;;;;;;5028146;28;20040;-63
2021/06/06 04:51:55;;;;;;;31.63;19.98;;;15.10;99.90;;;;;;5028150;28;20086;-63
2021/06/06 04:54:21;;;;;;;37.05;20.90;;;15.10;99.90;;;;;;5028383;28;20041;-61
2021/06/06 04:56:46;;;;;;;35.33;19.75;;;15.10;99.90;;;;;;5028165;28;20069;-64
2021/06/06 04:59:12;;;;;;;33.92;19.45;;;15.10;99.90;;;;;;5028309;28;21694;-63
2021/06/06 05:01:38;;;;;;;35.40;19.13;;;15.00;99.90;;;;;;5027907;28;20133;-61
2021/06/06 05:04:04;;;;;;;30.48;18.77;;;15.00;99.90;;;;;;5028137;28;20590;-59
2021/06/06 05:06:29;;;;;;;34.03;18.77;;;15.10;99.90;;;;;;5028520;28;20124;-63
2021/06/06 05:08:55;;;;;;;35.65;20.20;;;15.00;99.90;;;;;;5010995;28;20048;-63
2021/06/06 05:11:20;;;;;;;30.77;19.50;;;15.00;99.90;;;;;;5028563;28;20115;-62
2021/06/06 05:13:46;;;;;;;34.47;20.13;;;15.00;99.90;;;;;;5026881;28;20471;-62
2021/06/06 05:16:13;;;;;;;34.92;20.17;;;15.00;99.90;;;;;;5027816;28;20144;-62
2021/06/06 05:18:39;;;;;;;34.88;20.77;;;15.00;99.90;;;;;;5028362;28;20076;-62
2021/06/06 05:21:05;;;;;;;37.78;21.23;;;14.90;99.90;;;;;;5028055;28;20041;-62
2021/06/06 05:23:33;;;;;;;36.05;21.33;;;14.90;99.90;;;;;;5028578;28;20051;-62
2021/06/06 05:25:58;;;;;;;37.20;22.85;;;14.90;99.90;;;;;;5023496;28;20506;-62
2021/06/06 05:28:28;;;;;;;39.42;21.55;;;14.90;99.90;;;;;;5028186;28;20057;-62
2021/06/06 05:30:54;;;;;;;37.92;22.02;;;14.90;99.90;;;;;;5027373;28;20052;-63
2021/06/06 05:33:20;;;;;;;40.65;23.50;;;14.90;99.90;;;;;;5027939;28;20039;-60
2021/06/06 05:35:46;;;;;;;42.65;24.85;;;14.90;99.90;;;;;;5027852;28;20462;-62
2021/06/06 05:38:14;;;;;;;39.55;24.67;;;14.80;99.90;;;;;;5028533;28;20605;-63
2021/06/06 05:40:41;;;;;;;46.17;25.60;;;14.80;99.90;;;;;;5028553;28;20028;-63
2021/06/06 05:43:07;;;;;;;45.88;24.98;;;14.70;99.90;;;;;;5028687;28;20025;-57
2021/06/06 05:45:34;;;;;;;44.67;25.65;;;14.70;99.90;;;;;;5027483;28;20048;-60
2021/06/06 05:48:00;;;;;;;49.05;27.42;;;14.70;99.90;;;;;;5028434;28;20033;-62
2021/06/06 05:50:30;;;;;;;44.75;24.90;;;14.80;99.90;;;;;;5027988;28;20376;-61
2021/06/06 05:52:56;;;;;;;47.22;26.38;;;14.80;99.90;;;;;;5028461;28;20061;-59
2021/06/06 05:55:22;;;;;;;44.58;25.48;;;14.80;99.90;;;;;;5027557;28;20071;-63
2021/06/06 05:57:48;;;;;;;47.53;26.13;;;14.80;99.90;;;;;;5010542;28;20029;-60
2021/06/06 06:00:21;;;;;;;43.60;25.77;;;14.80;99.90;;;;;;5027546;28;20025;-61
2021/06/06 06:02:47;;;;;;;47.72;27.67;;;14.80;99.90;;;;;;5028137;28;20038;-62
2021/06/06 06:05:12;;;;;;;46.42;26.02;;;14.80;99.90;;;;;;5031448;28;20119;-63
2021/06/06 06:07:38;;;;;;;48.47;26.85;;;14.90;99.90;;;;;;5032029;28;20033;-62
2021/06/06 06:10:10;;;;;;;44.88;26.15;;;14.90;99.90;;;;;;5031216;28;20034;-59
2021/06/06 06:12:36;;;;;;;48.47;27.10;;;14.80;99.90;;;;;;5029729;28;20034;-62
2021/06/06 06:15:04;;;;;;;49.92;28.02;;;14.80;99.90;;;;;;5030646;28;20029;-63
2021/06/06 06:17:30;;;;;;;56.28;28.90;;;14.80;99.90;;;;;;5024019;28;20021;-62
2021/06/06 06:19:55;;;;;;;47.67;29.63;;;14.90;99.90;;;;;;5030001;28;21611;-63
2021/06/06 06:22:21;;;;;;;55.67;31.08;;;14.90;99.90;;;;;;5031558;28;20659;-63
2021/06/06 06:24:47;;;;;;;63.03;33.67;;;14.90;99.90;;;;;;5030300;28;20034;-62
2021/06/06 06:27:12;;;;;;;63.80;34.88;;;14.90;99.90;;;;;;5030733;28;20022;-60
2021/06/06 06:29:38;;;;;;;59.72;34.13;;;14.90;99.90;;;;;;5030980;28;20634;-60
2021/06/06 06:32:04;;;;;;;70.07;36.83;;;14.90;99.90;;;;;;5031891;28;20497;-61
2021/06/06 06:34:30;;;;;;;68.30;36.33;;;15.00;99.90;;;;;;5031228;28;20402;-60
2021/06/06 06:36:56;;;;;;;70.55;38.38;;;15.00;99.90;;;;;;5029708;28;20041;-60
2021/06/06 06:39:22;;;;;;;71.43;38.60;;;14.90;99.90;;;;;;5030992;28;20040;-62
2021/06/06 06:41:47;;;;;;;59.08;35.03;;;14.90;99.90;;;;;;5030586;28;20037;-62
2021/06/06 06:44:13;;;;;;;66.38;35.40;;;14.90;99.90;;;;;;5031201;28;20456;-63
2021/06/06 06:46:38;;;;;;;67.20;33.97;;;14.90;99.90;;;;;;5030167;28;20025;-61
2021/06/06 06:49:04;;;;;;;60.50;34.42;;;14.90;99.90;;;;;;5031407;28;20065;-62
2021/06/06 06:51:29;;;;;;;64.10;34.25;;;14.90;99.90;;;;;;5030799;28;20036;-62
2021/06/06 06:53:55;;;;;;;57.63;32.92;;;14.90;99.90;;;;;;5031580;28;20506;-62
2021/06/06 06:56:26;;;;;;;63.10;35.33;;;14.80;99.90;;;;;;5030349;28;20037;-63
2021/06/06 06:58:53;;;;;;;60.00;33.63;;;14.80;99.90;;;;;;5026288;28;20049;-62
2021/06/06 07:01:19;;;;;;;65.22;34.58;;;14.80;99.90;;;;;;5030928;28;20128;-61
2021/06/06 07:03:45;;;;;;;58.17;33.67;;;14.80;99.90;;;;;;5030664;28;20022;-60
2021/06/06 07:06:14;;;;;;;67.65;36.08;;;14.80;99.90;;;;;;5030786;28;20033;-60
2021/06/06 07:08:42;;;;;;;71.35;36.08;;;14.80;99.90;;;;;;5030285;28;20026;-60
2021/06/06 07:11:10;;;;;;;67.78;36.30;;;14.80;99.90;;;;;;5030126;28;20033;-61
2021/06/06 07:13:37;;;;;;;76.53;39.55;;;14.80;99.90;;;;;;5030264;28;20068;-62
2021/06/06 07:16:04;;;;;;;70.72;35.47;;;14.90;99.90;;;;;;5030974;28;20041;-62
2021/06/06 07:18:30;;;;;;;73.55;38.38;;;14.90;99.90;;;;;;5011860;28;20490;-62
2021/06/06 07:21:01;;;;;;;74.70;39.55;;;14.90;99.90;;;;;;5030556;28;20036;-61
2021/06/06 07:23:29;;;;;;;70.03;39.42;;;14.90;99.90;;;;;;5024945;28;20031;-61
2021/06/06 07:25:56;;;;;;;75.25;38.33;;;14.90;99.90;;;;;;5024111;28;20516;-61
2021/06/06 07:28:24;;;;;;;74.25;39.38;;;14.90;99.90;;;;;;5029251;28;20041;-62
2021/06/06 07:30:53;;;;;;;69.03;37.15;;;14.90;99.90;;;;;;5024075;28;20029;-62
2021/06/06 07:33:23;;;;;;;66.80;36.30;;;14.90;99.90;;;;;;5027180;28;20171;-62
2021/06/06 07:35:49;;;;;;;78.57;39.05;;;15.00;99.90;;;;;;5023509;28;20125;-60
2021/06/06 07:38:14;;;;;;;90.03;39.25;;;15.00;99.90;;;;;;5029102;28;20108;-63
2021/06/06 07:40:44;;;;;;;70.75;39.10;;;15.00;99.90;;;;;;5030152;28;20395;-62
2021/06/06 07:43:10;;;;;;;78.32;40.03;;;15.00;99.90;;;;;;5030110;28;20025;-63
2021/06/06 07:45:37;;;;;;;74.68;39.03;;;15.00;99.90;;;;;;5029788;28;20032;-61
2021/06/06 07:48:04;;;;;;;72.28;39.35;;;15.00;99.90;;;;;;5028889;28;20399;-61
2021/06/06 07:50:32;;;;;;;71.63;39.30;;;15.00;99.90;;;;;;5029757;28;20519;-60
2021/06/06 07:52:59;;;;;;;73.93;40.67;;;15.00;99.90;;;;;;5030073;28;20414;-59
2021/06/06 07:55:26;;;;;;;79.13;40.60;;;15.00;99.90;;;;;;5028772;28;20021;-60
2021/06/06 07:57:52;;;;;;;74.68;39.67;;;15.00;99.90;;;;;;5028629;28;20021;-59
2021/06/06 08:00:23;;;;;;;77.65;41.45;;;15.00;99.90;;;;;;5011689;28;20025;-62
2021/06/06 08:02:49;;;;;;;80.35;40.53;;;15.00;99.90;;;;;;5029555;28;20082;-63
2021/06/06 08:05:16;;;;;;;81.22;42.05;;;15.10;99.90;;;;;;5029097;28;20037;-62
2021/06/06 08:07:42;;;;;;;81.85;42.47;;;15.10;99.90;;;;;;5029019;28;20543;-63
2021/06/06 08:10:10;;;;;;;77.63;41.92;;;15.10;99.90;;;;;;5029464;28;20104;-63
2021/06/06 08:12:36;;;;;;;81.10;42.10;;;15.20;99.90;;;;;;5029384;28;20033;-63
2021/06/06 08:15:03;;;;;;;87.32;45.38;;;15.20;99.90;;;;;;5028908;28;20034;-61
2021/06/06 08:17:29;;;;;;;97.80;47.88;;;15.10;99.90;;;;;;5022930;28;20036;-61
2021/06/06 08:19:54;;;;;;;99.03;46.97;;;15.10;99.90;;;;;;5029232;28;20029;-61
2021/06/06 08:22:20;;;;;;;95.05;44.38;;;15.00;99.90;;;;;;5028973;28;20030;-61
2021/06/06 08:24:46;;;;;;;91.22;46.67;;;15.10;99.90;;;;;;5029566;28;20155;-61
2021/06/06 08:27:12;;;;;;;101.45;47.35;;;15.10;99.90;;;;;;5025928;28;20033;-60
2021/06/06 08:29:40;;;;;;;95.15;46.58;;;15.10;99.90;;;;;;5028182;28;20030;-61
2021/06/06 08:32:06;;;;;;;94.30;47.72;;;15.10;99.90;;;;;;5029726;28;20102;-60
2021/06/06 08:34:32;;;;;;;92.80;46.85;;;15.20;99.90;;;;;;5028235;28;20041;-59
2021/06/06 08:36:58;;;;;;;87.35;45.47;;;15.20;99.90;;;;;;5026918;28;20033;-61
2021/06/06 08:39:28;;;;;;;111.15;48.60;;;15.20;99.90;;;;;;5026428;28;20041;-60
2021/06/06 08:42:03;;;;;;;88.32;45.28;;;15.20;99.90;;;;;;5029228;28;20029;-62
2021/06/06 08:44:30;;;;;;;91.22;47.63;;;15.30;99.90;;;;;;5023039;28;20075;-61
2021/06/06 08:47:08;;;;;;;95.93;47.92;;;15.30;99.90;;;;;;5028186;28;20038;-61
2021/06/06 08:49:40;;;;;;;96.32;44.33;;;15.30;99.90;;;;;;5024462;28;20029;-60
2021/06/06 08:52:18;;;;;;;102.80;50.70;;;15.30;99.90;;;;;;5029327;28;20064;-61
2021/06/06 08:55:23;;;;;;;97.95;49.40;;;15.20;99.90;;;;;;5029194;28;20120;-61
2021/06/06 08:57:52;;;;;;;;;;;15.30;99.90;;;;;;4957453;28;20043;-58
2021/06/06 09:00:36;;;;;;;99.20;47.60;;;15.30;99.90;;;;;;5029142;28;19996;-61
2021/06/06 09:03:08;;;;;;;98.03;46.22;;;15.30;99.90;;;;;;5028879;28;20586;-61
2021/06/06 09:05:37;;;;;;;99.35;47.67;;;15.30;99.90;;;;;;5027196;28;20037;-62
2021/06/06 09:08:17;;;;;;;98.05;47.90;;;15.40;99.90;;;;;;5026996;28;20128;-61
2021/06/06 09:10:46;;;;;;;103.90;47.80;;;15.40;99.90;;;;;;5027458;28;20131;-57
2021/06/06 09:13:14;;;;;;;96.95;47.53;;;15.40;99.90;;;;;;5022363;28;20074;-61
2021/06/06 09:15:40;;;;;;;92.65;43.40;;;15.50;99.90;;;;;;5026466;28;20056;-60
2021/06/06 09:18:34;;;;;;;87.00;42.92;;;15.60;99.90;;;;;;5021997;28;20539;-61
2021/06/06 09:21:20;;;;;;;89.75;44.72;;;15.60;99.90;;;;;;4998748;28;20037;-61
2021/06/06 09:23:47;;;;;;;95.90;45.45;;;15.60;99.90;;;;;;5025968;28;20037;-60
2021/06/06 09:26:19;;;;;;;94.45;45.65;;;15.60;99.90;;;;;;5009134;28;20064;-58
2021/06/06 09:29:05;;;;;;;89.95;46.25;;;15.60;99.90;;;;;;5029577;28;20430;-58
2021/06/06 09:31:31;;;;;;;94.60;45.38;;;15.50;99.90;;;;;;5022634;28;20033;-54
2021/06/06 09:34:02;;;;;;;89.22;45.85;;;15.40;99.90;;;;;;5026125;28;20422;-55
2021/06/06 09:36:37;;;;;;;91.95;45.08;;;15.40;99.90;;;;;;5020692;28;20057;-61
2021/06/06 09:39:03;;;;;;;100.72;47.08;;;15.40;99.90;;;;;;5027612;28;20021;-59
2021/06/06 09:41:37;;;;;;;94.63;47.35;;;15.50;99.90;;;;;;5028982;28;20395;-57
2021/06/06 09:44:06;;;;;;;97.50;45.90;;;15.50;99.90;;;;;;5018206;28;20077;-59
2021/06/06 09:46:45;;;;;;;94.70;45.78;;;15.50;99.90;;;;;;5025826;28;20657;-59
2021/06/06 09:49:33;;;;;;;88.78;46.60;;;15.60;99.90;;;;;;5029418;28;20115;-58
2021/06/06 09:52:41;;;;;;;96.05;47.58;;;15.50;99.90;;;;;;5028789;28;20104;-58
2021/06/06 09:55:28;;;;;;;83.05;45.75;;;15.50;99.90;;;;;;5026870;28;20107;-58
2021/06/06 09:58:08;;;;;;;94.05;45.08;;;15.40;99.90;;;;;;5012010;28;20029;-57
2021/06/06 10:00:49;;;;;;;92.78;45.63;;;15.40;99.90;;;;;;5029077;28;20032;-58
2021/06/06 10:03:39;;;;;;;92.05;46.35;;;15.50;99.90;;;;;;5027368;28;20064;-59
2021/06/06 10:06:17;;;;;;;89.85;44.70;;;15.50;99.90;;;;;;5025248;28;20052;-60
2021/06/06 10:08:44;;;;;;;87.22;45.20;;;15.50;99.90;;;;;;5028960;28;20044;-58
2021/06/06 10:11:14;;;;;;;97.95;44.63;;;15.50;99.90;;;;;;5023175;28;20029;-60
2021/06/06 10:13:47;;;;;;;91.93;45.33;;;15.50;99.90;;;;;;5027197;28;20025;-60
2021/06/06 10:16:21;;;;;;;93.17;44.63;;;15.50;99.90;;;;;;5038325;22;20048;-54
2021/06/06 10:18:58;;;;;;;98.88;45.45;;;15.50;99.90;;;;;;4979207;28;20107;-57
2021/06/06 10:21:29;;;;;;;92.00;42.30;;;15.50;99.90;;;;;;4974263;28;20085;-56
2021/06/06 10:24:00;;;;;;;85.78;43.17;;;15.60;99.90;;;;;;4988441;28;20030;-54
2021/06/06 10:26:50;;;;;;;82.45;42.55;;;15.70;99.90;;;;;;4968305;28;20038;-53
2021/06/06 10:29:24;;;;;;;78.10;40.45;;;15.90;99.90;;;;;;4970786;28;20038;-57
2021/06/06 10:31:54;;;;;;;90.95;41.40;;;16.10;99.90;;;;;;4965636;28;20160;-58
2021/06/06 10:34:50;;;;;;;67.75;37.25;;;16.30;99.90;;;;;;4968935;28;20065;-54
2021/06/06 10:37:16;;;;;;;69.28;36.28;;;16.50;99.90;;;;;;4964427;28;20508;-53
2021/06/06 10:39:52;;;;;;;76.82;37.33;;;16.70;99.90;;;;;;4969439;28;20038;-57
2021/06/06 10:42:28;;;;;;;71.55;37.65;;;16.80;99.90;;;;;;4969748;28;20030;-55
2021/06/06 10:45:21;;;;;;;72.25;37.67;;;16.80;99.90;;;;;;4969523;28;20489;-58
2021/06/06 10:47:52;;;;;;;80.13;42.15;;;16.80;99.90;;;;;;4968100;28;20093;-54
2021/06/06 10:50:35;;;;;;;74.25;40.75;;;16.80;99.90;;;;;;4968611;28;20091;-57
2021/06/06 10:53:29;;;;;;;75.38;41.42;;;16.90;99.90;;;;;;4969032;28;20420;-54
2021/06/06 10:56:03;;;;;;;75.45;41.55;;;17.00;99.90;;;;;;4970220;28;20049;-61
2021/06/06 10:58:31;;;;;;;;;;;17.00;99.90;;;;;;4963366;28;20105;-58
2021/06/06 11:01:19;;;;;;;77.28;41.63;;;17.10;99.90;;;;;;4967357;28;21162;-57
2021/06/06 11:03:47;;;;;;;62.65;36.97;;;17.10;99.90;;;;;;4972654;28;20065;-58
2021/06/06 11:06:27;;;;;;;65.75;37.13;;;17.20;99.90;;;;;;4966041;28;20419;-60
2021/06/06 11:08:54;;;;;;;77.18;40.22;;;17.30;99.90;;;;;;4966609;28;20023;-58
2021/06/06 11:11:35;;;;;;;63.90;38.53;;;17.40;99.90;;;;;;4965279;28;20027;-55
2021/06/06 11:14:16;;;;;;;66.20;39.67;;;17.40;99.90;;;;;;4969528;28;20035;-56
2021/06/06 11:16:48;;;;;;;66.07;40.05;;;17.40;99.90;;;;;;4966670;28;20092;-57
2021/06/06 11:19:19;;;;;;;65.88;39.67;;;17.40;99.90;;;;;;4966506;28;20113;-57
2021/06/06 11:21:55;;;;;;;62.08;39.47;;;17.40;99.90;;;;;;4968228;28;20105;-58
2021/06/06 11:24:43;;;;;;;66.88;39.88;;;17.50;99.90;;;;;;4984979;28;20031;-57
2021/06/06 11:27:12;;;;;;;60.08;36.70;;;17.50;99.90;;;;;;4967173;28;20027;-54
2021/06/06 11:29:52;;;;;;;66.53;38.53;;;17.50;99.90;;;;;;4963294;28;20030;-58
2021/06/06 11:32:26;;;;;;;64.45;37.45;;;17.40;99.90;;;;;;4975378;28;20018;-53
2021/06/06 11:35:21;;;;;;;55.65;35.25;;;17.40;99.90;;;;;;4965658;28;20110;-57
2021/06/06 11:37:57;;;;;;;58.33;36.38;;;17.30;99.90;;;;;;4966490;28;20019;-54
2021/06/06 11:40:40;;;;;;;61.05;34.60;;;17.30;99.90;;;;;;4968263;28;20037;-55
2021/06/06 11:43:29;;;;;;;50.17;32.78;;;17.40;99.90;;;;;;4968465;28;20096;-54
2021/06/06 11:46:12;;;;;;;51.72;31.60;;;17.50;99.90;;;;;;4960210;28;20035;-59
2021/06/06 11:48:45;;;;;;;49.67;31.15;;;17.50;99.90;;;;;;4963489;28;20023;-53
2021/06/06 11:51:25;;;;;;;51.10;31.03;;;17.60;99.90;;;;;;4963623;28;20527;-56
2021/06/06 11:53:51;;;;;;;47.67;30.65;;;17.60;99.90;;;;;;4966630;28;20068;-56
2021/06/06 11:56:30;;;;;;;47.72;29.77;;;17.60;99.90;;;;;;4960546;28;20117;-53
2021/06/06 11:59:20;;;;;;;49.13;28.17;;;17.60;99.90;;;;;;4962176;28;20037;-54
2021/06/06 12:01:53;;;;;;;46.17;28.25;;;17.60;99.90;;;;;;4965240;28;20114;-55
2021/06/06 12:04:27;;;;;;;39.47;25.88;;;17.70;99.90;;;;;;4965724;28;20064;-58
2021/06/06 12:06:53;;;;;;;44.28;25.42;;;17.70;99.90;;;;;;4966337;28;20049;-57
2021/06/06 12:09:25;;;;;;;45.05;25.25;;;17.70;99.90;;;;;;4959776;28;20492;-58
2021/06/06 12:11:53;;;;;;;47.85;27.13;;;17.80;99.90;;;;;;4963770;28;20133;-60
2021/06/06 12:14:28;;;;;;;40.63;24.77;;;17.80;99.90;;;;;;4971178;28;20037;-55
2021/06/06 12:16:57;;;;;;;37.70;22.63;;;17.70;99.90;;;;;;4960430;28;20118;-53
2021/06/06 12:19:39;;;;;;;44.67;24.52;;;17.80;99.90;;;;;;4963405;28;20031;-55
2021/06/06 12:22:15;;;;;;;38.33;21.98;;;17.80;99.90;;;;;;4960265;28;20092;-55
2021/06/06 12:24:41;;;;;;;39.75;23.85;;;17.80;99.90;;;;;;4958651;28;20050;-58
2021/06/06 12:27:18;;;;;;;38.28;23.88;;;17.80;99.90;;;;;;4965695;28;20039;-53
2021/06/06 12:29:54;;;;;;;36.83;22.85;;;17.90;99.90;;;;;;4962299;28;20500;-61
2021/06/06 12:32:28;;;;;;;38.30;23.05;;;18.10;99.90;;;;;;4966306;28;20132;-54
2021/06/06 12:34:54;;;;;;;37.75;21.80;;;18.10;99.90;;;;;;4958814;28;20077;-51
2021/06/06 12:37:29;;;;;;;37.33;21.40;;;18.20;99.90;;;;;;4963649;28;20069;-56
2021/06/06 12:39:58;;;;;;;34.55;21.38;;;18.20;99.90;;;;;;4977910;28;20041;-57
2021/06/06 12:42:24;;;;;;;35.35;21.73;;;18.20;99.90;;;;;;4960419;28;20129;-52
2021/06/06 12:44:53;;;;;;;37.35;21.70;;;18.20;99.90;;;;;;4961565;28;20027;-53
2021/06/06 12:47:35;;;;;;;33.05;21.50;;;18.20;99.90;;;;;;4951649;28;20043;-57
2021/06/06 12:50:07;;;;;;;35.60;21.35;;;18.20;99.90;;;;;;4962843;28;20031;-54